createdAt,value
2019-01-25T05:42:44.259Z,16.90
2019-01-25T05:45:10.607Z,16.90
2019-01-25T05:47:36.935Z,16.90
2019-01-25T05:50:03.278Z,16.90
2019-01-25T05:52:31.355Z,16.90
2019-01-25T05:54:57.688Z,16.90
2019-01-25T05:57:24.005Z,16.90
2019-01-25T05:59:50.513Z,16.90
2019-01-25T06:02:16.854Z,16.80
2019-01-25T06:04:43.193Z,16.80
2019-01-25T06:07:09.530Z,16.80
2019-01-25T06:09:35.869Z,16.80
2019-01-25T06:12:02.198Z,16.80
2019-01-25T06:14:28.522Z,16.80
2019-01-25T06:16:54.864Z,16.80
2019-01-25T06:19:21.185Z,16.80
2019-01-25T06:21:47.530Z,16.80
2019-01-25T06:24:13.862Z,16.80
2019-01-25T06:26:40.211Z,16.80
2019-01-25T06:29:06.540Z,16.80
2019-01-25T06:31:32.875Z,16.80
2019-01-25T06:33:59.194Z,16.80
2019-01-25T06:36:25.576Z,16.80
2019-01-25T06:38:51.952Z,16.70
2019-01-25T06:41:18.276Z,16.70
2019-01-25T06:43:46.365Z,16.70
2019-01-25T06:46:12.666Z,16.70
2019-01-25T06:48:39.036Z,16.70
2019-01-25T06:51:05.385Z,16.70
2019-01-25T06:53:31.851Z,16.70
2019-01-25T06:55:58.184Z,16.70
2019-01-25T06:58:24.538Z,16.70
2019-01-25T07:00:50.850Z,16.70
2019-01-25T07:03:18.784Z,16.70
2019-01-25T07:05:45.136Z,16.70
2019-01-25T07:08:11.445Z,16.70
2019-01-25T07:10:37.816Z,16.70
2019-01-25T07:13:04.137Z,16.80
2019-01-25T07:15:30.626Z,16.80
2019-01-25T07:17:56.975Z,16.80
2019-01-25T07:20:23.389Z,16.80
2019-01-25T07:22:51.460Z,16.80
2019-01-25T07:25:19.749Z,16.80
2019-01-25T07:27:46.040Z,16.80
2019-01-25T07:30:12.362Z,16.80
2019-01-25T07:32:38.678Z,16.80
2019-01-25T07:35:05.037Z,16.80
2019-01-25T07:37:31.353Z,16.80
2019-01-25T07:39:57.714Z,16.80
2019-01-25T07:42:25.804Z,16.80
2019-01-25T07:44:52.137Z,16.80
2019-01-25T07:47:18.506Z,16.80
2019-01-25T07:49:46.572Z,16.80
2019-01-25T07:52:14.664Z,16.90
2019-01-25T07:54:40.984Z,16.90
2019-01-25T07:57:07.394Z,16.90
2019-01-25T07:59:35.518Z,16.90
2019-01-25T08:02:02.020Z,16.90
2019-01-25T08:04:28.459Z,16.90
2019-01-25T08:06:54.824Z,16.90
2019-01-25T08:09:21.188Z,16.90
2019-01-25T08:11:47.557Z,16.90
2019-01-25T08:14:13.930Z,16.90
2019-01-25T08:16:40.260Z,16.90
2019-01-25T08:19:06.570Z,16.90
2019-01-25T08:21:32.929Z,16.90
2019-01-25T08:23:59.240Z,16.90
2019-01-25T08:26:25.612Z,16.90
2019-01-25T08:28:51.958Z,16.90
2019-01-25T08:31:18.343Z,16.90
2019-01-25T08:33:44.662Z,16.90
2019-01-25T08:36:11.074Z,16.90
2019-01-25T08:38:38.033Z,16.90
2019-01-25T08:41:04.403Z,16.90
2019-01-25T08:43:30.746Z,16.90
2019-01-25T08:45:57.136Z,16.90
2019-01-25T08:48:23.714Z,16.90
2019-01-25T08:50:50.162Z,16.90
2019-01-25T08:53:16.607Z,16.90
2019-01-25T08:55:42.956Z,16.90
2019-01-25T08:58:09.365Z,16.90
2019-01-25T09:00:35.704Z,16.90
2019-01-25T09:03:02.044Z,16.90
2019-01-25T09:05:28.365Z,16.90
2019-01-25T09:07:54.683Z,17.00
2019-01-25T09:10:21.038Z,16.90
2019-01-25T09:12:47.395Z,17.00
2019-01-25T09:15:13.753Z,17.00
2019-01-25T09:17:40.066Z,16.90
2019-01-25T09:20:06.482Z,17.00
2019-01-25T09:22:32.819Z,17.00
2019-01-25T09:24:59.146Z,17.00
2019-01-25T09:27:25.493Z,17.00
2019-01-25T09:29:51.837Z,17.00
2019-01-25T09:32:19.297Z,17.00
2019-01-25T09:34:45.641Z,17.00
2019-01-25T09:37:11.959Z,17.00
2019-01-25T09:39:38.291Z,17.00
2019-01-25T09:42:04.618Z,17.00
2019-01-25T09:44:30.979Z,17.00
2019-01-25T09:46:57.329Z,17.00
2019-01-25T09:49:23.688Z,17.00
2019-01-25T09:51:50.011Z,17.00
2019-01-25T09:54:16.358Z,17.00
2019-01-25T09:56:42.708Z,17.00
2019-01-25T09:59:09.120Z,17.00
2019-01-25T10:01:35.433Z,17.00
2019-01-25T10:04:02.003Z,17.00
2019-01-25T10:06:29.329Z,17.00
2019-01-25T10:08:55.718Z,17.00
2019-01-25T10:11:22.127Z,17.00
2019-01-25T10:13:50.286Z,17.00
2019-01-25T10:16:16.629Z,17.00
2019-01-25T10:18:42.973Z,17.00
2019-01-25T10:21:09.317Z,17.00
2019-01-25T10:23:39.174Z,17.00
2019-01-25T10:26:03.658Z,17.00
2019-01-25T10:28:31.716Z,17.00
2019-01-25T10:30:58.362Z,17.00
2019-01-25T10:33:24.689Z,17.00
2019-01-25T10:35:51.014Z,17.00
2019-01-25T10:38:17.346Z,17.00
2019-01-25T10:40:43.698Z,17.00
2019-01-25T10:43:10.026Z,17.00
2019-01-25T10:45:38.140Z,17.00
2019-01-25T10:48:04.453Z,17.00
2019-01-25T10:50:30.805Z,17.00
2019-01-25T10:52:57.156Z,17.00
2019-01-25T10:55:23.485Z,17.00
2019-01-25T10:57:49.837Z,17.00
2019-01-25T11:00:16.170Z,17.10
2019-01-25T11:02:42.575Z,17.10
2019-01-25T11:05:10.666Z,17.00
2019-01-25T11:07:37.093Z,17.10
2019-01-25T11:10:03.423Z,17.10
2019-01-25T11:12:29.751Z,17.00
2019-01-25T11:14:56.098Z,17.10
2019-01-25T11:17:22.441Z,17.10
2019-01-25T11:19:48.806Z,17.10
2019-01-25T11:22:15.170Z,17.10
2019-01-25T11:24:43.218Z,17.10
2019-01-25T11:27:09.518Z,17.10
2019-01-25T11:29:35.865Z,17.10
2019-01-25T11:32:03.320Z,17.10
2019-01-25T11:34:33.092Z,17.10
2019-01-25T11:36:57.753Z,17.10
2019-01-25T11:39:25.777Z,17.10
2019-01-25T11:41:52.094Z,17.10
2019-01-25T11:44:18.431Z,17.10
2019-01-25T11:46:44.760Z,17.10
2019-01-25T11:49:11.163Z,17.10
2019-01-25T11:51:39.371Z,17.10
2019-01-25T11:54:07.506Z,17.10
2019-01-25T11:56:33.802Z,17.10
2019-01-25T11:59:00.126Z,17.10
2019-01-25T12:01:26.479Z,17.10
2019-01-25T12:03:52.823Z,17.10
2019-01-25T12:06:20.347Z,17.10
2019-01-25T12:08:46.665Z,17.10
2019-01-25T12:11:13.009Z,17.10
2019-01-25T12:13:39.347Z,17.10
2019-01-25T12:16:05.674Z,17.10
2019-01-25T12:18:32.068Z,17.10
2019-01-25T12:20:58.666Z,17.10
2019-01-25T12:23:25.326Z,17.10
2019-01-25T12:25:51.702Z,17.10
2019-01-25T12:28:18.014Z,17.10
2019-01-25T12:30:44.348Z,17.10
2019-01-25T12:33:10.732Z,17.10
2019-01-25T12:35:37.106Z,17.10
2019-01-25T12:38:03.444Z,17.10
2019-01-25T12:40:29.783Z,17.10
2019-01-25T12:42:56.099Z,17.10
2019-01-25T12:45:22.452Z,17.10
2019-01-25T12:47:48.806Z,17.10
2019-01-25T12:50:15.127Z,17.10
2019-01-25T12:52:41.484Z,17.10
2019-01-25T12:55:07.822Z,17.10
2019-01-25T12:57:34.168Z,17.10
2019-01-25T13:00:00.507Z,17.10
2019-01-25T13:02:26.862Z,17.10
2019-01-25T13:04:53.177Z,17.10
2019-01-25T13:07:19.581Z,17.10
2019-01-25T13:09:45.938Z,17.20
2019-01-25T13:12:12.249Z,17.10
2019-01-25T13:14:38.605Z,17.10
2019-01-25T13:17:04.928Z,17.10
2019-01-25T13:19:33.026Z,17.20
2019-01-25T13:21:59.445Z,17.10
2019-01-25T13:24:27.736Z,17.10
2019-01-25T13:26:55.976Z,17.20
2019-01-25T13:29:26.497Z,17.10
2019-01-25T13:31:50.440Z,17.20
2019-01-25T13:34:17.103Z,17.20
2019-01-25T13:36:43.428Z,17.10
2019-01-25T13:39:10.066Z,17.10
2019-01-25T13:41:36.395Z,17.20
2019-01-25T13:44:03.079Z,17.20
2019-01-25T13:49:15.120Z,17.10
2019-01-25T13:51:41.417Z,17.20
2019-01-25T13:54:07.868Z,17.20
2019-01-25T13:56:34.403Z,17.10
2019-01-25T13:59:00.741Z,17.10
2019-01-25T14:01:34.356Z,17.20
2019-01-25T14:03:55.066Z,17.20
2019-01-25T14:06:21.422Z,17.10
2019-01-25T14:08:47.775Z,17.10
2019-01-25T14:11:16.094Z,17.20
2019-01-25T14:13:46.703Z,17.20
2019-01-25T14:16:10.172Z,17.20
2019-01-25T14:18:36.553Z,17.20
2019-01-25T14:21:02.877Z,17.20
2019-01-25T14:23:29.210Z,17.20
2019-01-25T14:25:55.553Z,17.20
2019-01-25T14:28:21.964Z,17.20
2019-01-25T14:30:48.315Z,17.20
2019-01-25T14:33:14.643Z,17.30
2019-01-25T14:35:40.966Z,17.20
2019-01-25T14:38:07.295Z,17.30
2019-01-25T14:40:33.751Z,17.20
2019-01-25T14:43:00.125Z,17.30
2019-01-25T14:45:26.457Z,17.30
2019-01-25T14:47:52.833Z,17.30
2019-01-25T14:50:19.161Z,17.30
2019-01-25T14:52:45.494Z,17.30
2019-01-25T14:55:11.810Z,17.30
2019-01-25T14:57:38.135Z,17.30
2019-01-25T15:00:04.765Z,17.30
2019-01-25T15:02:32.739Z,17.30
2019-01-25T15:04:58.999Z,17.40
2019-01-25T15:07:25.335Z,17.40
2019-01-25T15:09:51.865Z,17.40
2019-01-25T15:12:18.206Z,17.40
2019-01-25T15:14:44.551Z,17.40
2019-01-25T15:17:10.958Z,17.40
2019-01-25T15:19:37.280Z,17.40
2019-01-25T15:22:03.650Z,17.40
2019-01-25T15:24:29.975Z,17.40
2019-01-25T15:26:56.310Z,17.50
2019-01-25T15:29:22.959Z,17.40
2019-01-25T15:31:49.250Z,17.50
2019-01-25T15:34:15.741Z,17.50
2019-01-25T15:36:42.088Z,17.50
2019-01-25T15:39:08.405Z,17.50
2019-01-25T15:41:34.766Z,17.50
2019-01-25T15:44:01.103Z,17.50
2019-01-25T15:46:27.611Z,17.50
2019-01-25T15:48:54.174Z,17.50
2019-01-25T15:51:20.816Z,17.50
2019-01-25T15:53:47.140Z,17.50
2019-01-25T15:56:13.490Z,17.50
2019-01-25T15:58:39.837Z,17.50
2019-01-25T16:01:06.217Z,17.50
2019-01-25T16:03:32.596Z,17.50
2019-01-25T16:05:59.045Z,17.50
2019-01-25T16:08:25.370Z,17.50
2019-01-25T16:10:51.698Z,17.50
2019-01-25T16:13:18.099Z,17.50
2019-01-25T16:15:44.429Z,17.50
2019-01-25T16:18:10.781Z,17.50
2019-01-25T16:20:37.161Z,17.50
2019-01-25T16:23:05.286Z,17.50
2019-01-25T16:25:31.660Z,17.50
2019-01-25T16:27:57.993Z,17.50
2019-01-25T16:30:24.336Z,17.50
2019-01-25T16:32:50.689Z,17.50
2019-01-25T16:35:17.056Z,17.50
2019-01-25T16:37:43.399Z,17.50
2019-01-25T16:40:09.747Z,17.60
2019-01-25T16:42:36.234Z,17.50
2019-01-25T16:45:02.571Z,17.50
2019-01-25T16:47:30.770Z,17.50
2019-01-25T16:49:57.608Z,17.50
2019-01-25T16:52:24.040Z,17.60
2019-01-25T16:54:50.478Z,17.50
2019-01-25T16:57:16.796Z,17.60
2019-01-25T16:59:43.129Z,17.60
2019-01-25T17:02:09.498Z,17.60
2019-01-25T17:04:35.824Z,17.60
2019-01-25T17:07:02.183Z,17.60
2019-01-25T17:09:28.510Z,17.60
2019-01-25T17:11:54.874Z,17.60
2019-01-25T17:14:21.220Z,17.60
2019-01-25T17:16:47.613Z,17.60
2019-01-25T17:19:13.955Z,17.60
2019-01-25T17:21:40.315Z,17.60
2019-01-25T17:24:06.829Z,17.60
2019-01-25T17:26:33.154Z,17.60
2019-01-25T17:28:59.630Z,17.60
2019-01-25T17:31:25.959Z,17.60
2019-01-25T17:33:52.297Z,17.60
2019-01-25T17:36:18.712Z,17.60
2019-01-25T17:38:45.048Z,17.60
2019-01-25T17:41:11.358Z,17.60
2019-01-25T17:43:37.691Z,17.60
2019-01-25T17:46:04.041Z,17.60
2019-01-25T17:48:30.398Z,17.60
2019-01-25T17:50:56.741Z,17.60
2019-01-25T17:53:23.089Z,17.60
2019-01-25T17:55:49.422Z,17.60
2019-01-25T17:58:15.795Z,17.60
2019-01-25T18:00:42.102Z,17.60
2019-01-25T18:03:08.431Z,17.60
2019-01-25T18:05:35.754Z,17.60
2019-01-25T18:08:02.024Z,17.60
2019-01-25T18:10:28.399Z,17.60
2019-01-25T18:12:54.782Z,17.60
2019-01-25T18:15:21.045Z,17.60
2019-01-25T18:17:47.392Z,17.60
2019-01-25T18:20:13.737Z,17.60
2019-01-25T18:22:40.085Z,17.60
2019-01-25T18:25:06.395Z,17.60
2019-01-25T18:27:32.766Z,17.60
2019-01-25T18:29:59.152Z,17.60
2019-01-25T18:32:25.460Z,17.60
2019-01-25T18:34:51.929Z,17.60
2019-01-25T18:37:18.271Z,17.60
2019-01-25T18:39:44.629Z,17.60
2019-01-25T18:42:10.977Z,17.60
2019-01-25T18:44:37.362Z,17.70
2019-01-25T18:47:03.696Z,17.60
2019-01-25T18:49:30.026Z,17.60
2019-01-25T18:51:56.358Z,17.70
2019-01-25T18:54:22.721Z,17.70
2019-01-25T18:56:49.091Z,17.70
2019-01-25T18:59:15.530Z,17.70
2019-01-25T19:01:41.871Z,17.70
2019-01-25T19:04:08.227Z,17.70
2019-01-25T19:06:34.557Z,17.70
2019-01-25T19:09:00.894Z,17.70
2019-01-25T19:11:27.252Z,17.70
2019-01-25T19:13:53.602Z,17.70
2019-01-25T19:16:19.927Z,17.70
2019-01-25T19:18:46.279Z,17.70
2019-01-25T19:21:13.804Z,17.70
2019-01-25T19:23:41.430Z,17.70
2019-01-25T19:26:07.976Z,17.70
2019-01-25T19:28:34.373Z,17.70
2019-01-25T19:31:00.717Z,17.70
2019-01-25T19:33:27.042Z,17.80
2019-01-25T19:35:53.430Z,17.80
2019-01-25T19:38:19.781Z,17.80
2019-01-25T19:40:46.133Z,17.80
2019-01-25T19:43:12.466Z,17.80
2019-01-25T19:45:38.802Z,17.80
2019-01-25T19:48:05.131Z,17.80
2019-01-25T19:50:31.446Z,17.80
2019-01-25T19:52:57.817Z,17.80
2019-01-25T19:55:24.230Z,17.80
2019-01-25T19:57:50.589Z,17.80
2019-01-25T20:00:16.952Z,17.80
2019-01-25T20:02:45.024Z,17.80
2019-01-25T20:05:11.312Z,17.80
2019-01-25T20:07:37.679Z,17.90
2019-01-25T20:10:05.749Z,17.90
2019-01-25T20:12:33.952Z,17.90
2019-01-25T20:15:00.270Z,17.90
2019-01-25T20:17:26.585Z,17.90
2019-01-25T20:19:52.946Z,17.90
2019-01-25T20:22:19.293Z,17.90
2019-01-25T20:24:47.565Z,17.90
2019-01-25T20:27:13.857Z,17.90
2019-01-25T20:29:40.212Z,17.90
2019-01-25T20:32:06.526Z,17.90
2019-01-25T20:34:33.976Z,17.90
2019-01-25T20:37:00.333Z,17.90
2019-01-25T20:39:26.646Z,17.90
2019-01-25T20:41:53.021Z,17.90
2019-01-25T20:44:19.377Z,17.90
2019-01-25T20:46:45.719Z,17.90
2019-01-25T20:49:12.066Z,17.90
2019-01-25T20:51:40.277Z,17.90
2019-01-25T20:54:06.577Z,17.90
2019-01-25T20:56:33.039Z,17.90
2019-01-25T20:58:59.361Z,17.90
2019-01-25T21:01:25.710Z,17.90
2019-01-25T21:03:52.067Z,17.90
2019-01-25T21:06:18.428Z,17.90
2019-01-25T21:08:44.779Z,17.90
2019-01-25T21:11:11.111Z,17.90
2019-01-25T21:13:39.290Z,17.90
2019-01-25T21:16:05.646Z,17.90
2019-01-25T21:18:31.985Z,17.90
2019-01-25T21:20:58.335Z,17.90
2019-01-25T21:23:24.674Z,17.90
2019-01-25T21:25:50.999Z,17.90
2019-01-25T21:28:17.354Z,17.90
2019-01-25T21:30:43.762Z,17.90
2019-01-25T21:33:10.122Z,18.00
2019-01-25T21:35:36.452Z,17.90
2019-01-25T21:38:02.839Z,18.00
2019-01-25T21:40:30.191Z,18.00
2019-01-25T21:42:58.378Z,18.00
2019-01-25T21:45:24.751Z,18.00
2019-01-25T21:47:51.081Z,18.00
2019-01-25T21:50:17.462Z,18.00
2019-01-25T21:52:43.829Z,18.00
2019-01-25T21:55:10.164Z,18.00
2019-01-25T21:57:36.508Z,18.00
2019-01-25T22:00:04.704Z,18.00
2019-01-25T22:02:32.719Z,18.00
2019-01-25T22:04:59.043Z,18.00
2019-01-25T22:07:25.478Z,18.00
2019-01-25T22:09:51.771Z,18.00
2019-01-25T22:12:18.119Z,18.00
2019-01-25T22:14:44.469Z,18.00
2019-01-25T22:17:10.813Z,18.00
2019-01-25T22:19:37.143Z,18.00
2019-01-25T22:22:04.484Z,18.00
2019-01-25T22:24:30.848Z,18.00
2019-01-25T22:26:57.517Z,18.00
2019-01-25T22:29:23.873Z,18.00
2019-01-25T22:31:50.290Z,18.00
2019-01-25T22:34:18.370Z,18.00
2019-01-25T22:36:44.718Z,18.00
2019-01-25T22:39:13.272Z,18.10
2019-01-25T22:41:40.989Z,18.00
2019-01-25T22:44:07.594Z,18.00
2019-01-25T22:46:33.950Z,18.00
2019-01-25T22:49:00.336Z,18.00
2019-01-25T22:51:26.692Z,18.00
2019-01-25T22:53:53.026Z,18.10
2019-01-25T22:56:19.534Z,18.00
2019-01-25T22:58:45.917Z,18.00
2019-01-25T23:01:12.257Z,18.00
2019-01-25T23:03:38.629Z,18.10
2019-01-25T23:06:05.029Z,18.00
2019-01-25T23:08:31.402Z,18.00
2019-01-25T23:10:57.711Z,18.00
2019-01-25T23:13:24.038Z,18.00
2019-01-25T23:15:50.826Z,18.00
2019-01-25T23:18:17.163Z,17.90
